createdAt,value
2019-02-04T00:00:30.933Z,9.83
2019-02-04T00:03:02.024Z,10.33
2019-02-04T00:05:33.736Z,10.00
2019-02-04T00:08:04.375Z,12.30
2019-02-04T00:10:35.113Z,11.23
2019-02-04T00:13:06.670Z,10.70
2019-02-04T00:15:37.497Z,11.60
2019-02-04T00:18:08.314Z,11.80
2019-02-04T00:20:39.037Z,12.97
2019-02-04T00:23:09.752Z,12.50
2019-02-04T00:25:40.845Z,12.93
2019-02-04T00:28:11.559Z,12.20
2019-02-04T00:30:42.339Z,10.60
2019-02-04T00:33:13.077Z,10.53
2019-02-04T00:35:43.831Z,10.90
2019-02-04T00:38:14.860Z,10.40
2019-02-04T00:40:45.597Z,10.10
2019-02-04T00:43:16.445Z,10.20
2019-02-04T00:45:47.189Z,10.27
2019-02-04T00:48:17.949Z,10.87
2019-02-04T00:50:49.126Z,9.90
2019-02-04T00:53:19.923Z,10.47
2019-02-04T00:55:50.741Z,10.00
2019-02-04T00:58:21.865Z,10.30
2019-02-04T01:00:52.626Z,10.07
2019-02-04T01:03:23.359Z,9.83
2019-02-04T01:05:54.127Z,10.50
2019-02-04T01:08:24.887Z,9.20
2019-02-04T01:10:55.646Z,10.10
2019-02-04T01:13:26.405Z,10.30
2019-02-04T01:15:57.193Z,9.73
2019-02-04T01:18:27.921Z,9.73
2019-02-04T01:20:58.653Z,9.67
2019-02-04T01:23:29.283Z,9.20
2019-02-04T01:26:00.017Z,10.40
2019-02-04T01:28:30.734Z,10.30
2019-02-04T01:31:01.465Z,10.10
2019-02-04T01:33:32.187Z,10.43
2019-02-04T01:36:02.918Z,10.70
2019-02-04T01:38:33.711Z,9.70
2019-02-04T01:41:04.471Z,9.20
2019-02-04T01:43:35.174Z,8.60
2019-02-04T01:46:05.909Z,9.40
2019-02-04T01:48:36.595Z,8.87
2019-02-04T01:51:07.323Z,9.57
2019-02-04T01:53:38.020Z,9.53
2019-02-04T01:56:08.856Z,8.93
2019-02-04T01:58:39.631Z,9.40
2019-02-04T02:01:10.304Z,8.53
2019-02-04T02:03:41.018Z,8.30
2019-02-04T02:06:11.777Z,8.30
2019-02-04T02:08:42.610Z,8.90
2019-02-04T02:11:13.360Z,9.17
2019-02-04T02:13:44.009Z,8.70
2019-02-04T02:16:14.730Z,9.60
2019-02-04T02:18:45.453Z,8.77
2019-02-04T02:21:16.499Z,8.97
2019-02-04T02:23:48.378Z,8.00
2019-02-04T02:26:19.102Z,7.33
2019-02-04T02:28:49.802Z,7.97
2019-02-04T02:31:20.526Z,8.10
2019-02-04T02:33:51.531Z,8.13
2019-02-04T02:36:22.285Z,7.60
2019-02-04T02:38:52.990Z,7.60
2019-02-04T02:41:23.728Z,8.13
2019-02-04T02:43:54.420Z,7.43
2019-02-04T02:46:25.152Z,7.27
2019-02-04T02:48:55.872Z,7.03
2019-02-04T02:51:26.597Z,7.60
2019-02-04T02:53:57.289Z,8.13
2019-02-04T02:56:28.010Z,7.40
2019-02-04T02:58:58.625Z,8.90
2019-02-04T03:01:29.277Z,8.00
2019-02-04T03:03:59.993Z,7.13
2019-02-04T03:06:30.722Z,7.53
2019-02-04T03:09:01.421Z,7.80
2019-02-04T03:11:33.770Z,6.83
2019-02-04T03:14:04.475Z,8.47
2019-02-04T03:16:35.189Z,8.53
2019-02-04T03:19:06.862Z,7.77
2019-02-04T03:21:37.581Z,9.57
2019-02-04T03:24:08.290Z,8.20
2019-02-04T03:26:39.041Z,8.23
2019-02-04T03:29:09.746Z,7.47
2019-02-04T03:31:45.774Z,7.73
2019-02-04T03:34:13.059Z,8.60
2019-02-04T03:36:43.859Z,8.90
2019-02-04T03:39:14.581Z,10.20
2019-02-04T03:41:45.305Z,9.93
2019-02-04T03:44:15.996Z,8.47
2019-02-04T03:46:46.744Z,9.70
2019-02-04T03:49:17.441Z,11.13
2019-02-04T03:51:48.359Z,10.47
2019-02-04T03:54:19.001Z,9.17
2019-02-04T03:56:49.738Z,9.70
2019-02-04T03:59:20.441Z,9.70
2019-02-04T04:01:51.489Z,10.00
2019-02-04T04:04:22.393Z,9.37
2019-02-04T04:06:53.126Z,10.00
2019-02-04T04:09:23.832Z,9.60
2019-02-04T04:11:54.513Z,9.10
2019-02-04T04:14:26.191Z,9.10
2019-02-04T04:16:57.233Z,8.93
2019-02-04T04:19:27.945Z,9.80
2019-02-04T04:21:58.679Z,9.40
2019-02-04T04:24:29.389Z,9.50
2019-02-04T04:27:00.121Z,9.30
2019-02-04T04:29:31.234Z,10.37
2019-02-04T04:32:01.981Z,9.80
2019-02-04T04:34:32.694Z,9.77
2019-02-04T04:37:03.437Z,9.20
2019-02-04T04:39:34.178Z,10.37
2019-02-04T04:42:04.745Z,10.00
2019-02-04T04:44:35.214Z,10.03
2019-02-04T04:47:05.965Z,10.80
2019-02-04T04:49:36.707Z,10.07
2019-02-04T04:52:08.497Z,10.20
2019-02-04T04:54:39.141Z,11.10
2019-02-04T04:57:09.841Z,10.90
2019-02-04T04:59:40.569Z,10.70
2019-02-04T05:02:11.216Z,11.70
2019-02-04T05:04:41.948Z,11.13
2019-02-04T05:07:12.657Z,11.33
2019-02-04T05:09:43.410Z,12.20
2019-02-04T05:12:14.144Z,10.90
2019-02-04T05:14:44.882Z,11.67
2019-02-04T05:17:15.517Z,13.10
2019-02-04T05:19:46.266Z,12.80
2019-02-04T05:22:17.174Z,12.83
2019-02-04T05:24:47.900Z,12.00
2019-02-04T05:27:18.597Z,13.13
2019-02-04T05:29:49.278Z,11.33
2019-02-04T05:32:19.914Z,13.00
2019-02-04T05:34:50.845Z,12.73
2019-02-04T05:37:21.581Z,11.67
2019-02-04T05:39:52.238Z,12.40
2019-02-04T05:42:22.988Z,11.00
2019-02-04T05:44:53.696Z,12.00
2019-02-04T05:47:24.708Z,12.77
2019-02-04T05:49:55.373Z,12.70
2019-02-04T05:52:26.081Z,12.60
2019-02-04T05:54:56.753Z,12.00
2019-02-04T05:57:27.459Z,12.50
2019-02-04T05:59:58.509Z,12.53
2019-02-04T06:02:29.251Z,12.10
2019-02-04T06:04:59.976Z,12.80
2019-02-04T06:07:30.692Z,13.80
2019-02-04T06:10:01.445Z,13.97
2019-02-04T06:12:34.882Z,11.73
2019-02-04T06:15:05.845Z,12.87
2019-02-04T06:17:36.558Z,13.57
2019-02-04T06:20:09.510Z,13.37
2019-02-04T06:22:41.120Z,13.03
2019-02-04T06:25:12.165Z,13.30
2019-02-04T06:27:42.872Z,14.23
2019-02-04T06:30:13.941Z,13.30
2019-02-04T06:32:44.663Z,14.03
2019-02-04T06:35:16.097Z,14.00
2019-02-04T06:37:47.347Z,15.30
2019-02-04T06:40:18.386Z,15.80
2019-02-04T06:42:49.090Z,14.70
2019-02-04T06:45:19.925Z,14.10
2019-02-04T06:47:50.642Z,14.43
2019-02-04T06:50:21.416Z,15.23
2019-02-04T06:52:52.136Z,14.50
2019-02-04T06:55:28.350Z,14.40
2019-02-04T06:57:58.994Z,14.80
2019-02-04T07:00:29.720Z,15.37
2019-02-04T07:03:00.752Z,15.50
2019-02-04T07:05:43.077Z,16.87
2019-02-04T07:08:03.833Z,17.73
2019-02-04T07:10:34.494Z,14.83
2019-02-04T07:13:05.256Z,15.63
2019-02-04T07:15:35.922Z,14.07
2019-02-04T07:18:06.544Z,14.67
2019-02-04T07:20:37.279Z,14.80
2019-02-04T07:23:07.986Z,14.00
2019-02-04T07:25:38.740Z,14.80
2019-02-04T07:28:09.453Z,14.50
2019-02-04T07:30:40.190Z,13.27
2019-02-04T07:33:10.906Z,13.30
2019-02-04T07:35:41.670Z,17.57
2019-02-04T07:38:12.409Z,18.90
2019-02-04T07:40:43.145Z,16.93
2019-02-04T07:43:14.279Z,19.10
2019-02-04T07:45:45.017Z,14.43
2019-02-04T07:48:15.745Z,13.70
2019-02-04T07:50:46.486Z,14.00
2019-02-04T07:53:17.213Z,12.97
2019-02-04T07:55:47.877Z,13.40
2019-02-04T07:58:18.594Z,13.80
2019-02-04T08:00:49.261Z,13.80
2019-02-04T08:03:19.991Z,15.13
2019-02-04T08:05:50.708Z,15.27
2019-02-04T08:08:21.426Z,12.50
2019-02-04T08:10:52.117Z,13.37
2019-02-04T08:13:22.869Z,13.17
2019-02-04T08:15:53.590Z,14.10
2019-02-04T08:18:24.316Z,12.20
2019-02-04T08:20:55.017Z,12.70
2019-02-04T08:23:26.036Z,12.90
2019-02-04T08:25:56.682Z,15.10
2019-02-04T08:28:27.429Z,13.40
2019-02-04T08:30:59.122Z,13.83
2019-02-04T08:33:29.855Z,13.20
2019-02-04T08:36:00.849Z,12.33
2019-02-04T08:38:31.566Z,12.50
2019-02-04T08:41:02.215Z,11.50
2019-02-04T08:43:32.926Z,13.03
2019-02-04T08:46:03.627Z,11.73
2019-02-04T08:48:34.341Z,11.63
2019-02-04T08:51:05.573Z,12.93
2019-02-04T08:53:36.337Z,12.07
2019-02-04T08:56:07.071Z,13.17
2019-02-04T08:58:37.794Z,12.17
2019-02-04T09:01:08.429Z,12.87
2019-02-04T09:03:39.349Z,12.80
2019-02-04T09:06:10.052Z,13.53
2019-02-04T09:08:40.767Z,12.77
2019-02-04T09:11:11.582Z,12.20
2019-02-04T09:13:42.253Z,13.40
2019-02-04T09:16:12.955Z,15.07
2019-02-04T09:18:45.160Z,15.67
2019-02-04T09:21:15.842Z,14.50
2019-02-04T09:23:46.589Z,15.37
2019-02-04T09:26:17.681Z,17.00
2019-02-04T09:28:48.401Z,14.70
2019-02-04T09:31:19.307Z,12.90
2019-02-04T09:33:50.021Z,15.27
2019-02-04T09:36:20.847Z,15.13
2019-02-04T09:38:51.540Z,14.33
2019-02-04T09:41:23.133Z,14.30
2019-02-04T09:43:53.878Z,14.50
2019-02-04T09:46:24.595Z,15.40
2019-02-04T09:48:55.311Z,16.63
2019-02-04T09:51:26.017Z,16.33
2019-02-04T09:53:56.753Z,14.10
2019-02-04T09:56:27.457Z,14.13
2019-02-04T09:58:58.389Z,13.17
2019-02-04T10:01:29.106Z,14.17
2019-02-04T10:03:59.849Z,13.30
2019-02-04T10:06:30.553Z,13.47
2019-02-04T10:09:01.274Z,13.97
2019-02-04T10:11:33.391Z,12.17
2019-02-04T10:14:04.125Z,13.43
2019-02-04T10:16:34.831Z,11.73
2019-02-04T10:19:05.597Z,11.23
2019-02-04T10:21:36.265Z,13.47
2019-02-04T10:24:07.199Z,13.93
2019-02-04T10:26:37.902Z,12.23
2019-02-04T10:29:08.583Z,11.80
2019-02-04T10:31:39.276Z,12.30
2019-02-04T10:34:10.000Z,10.97
2019-02-04T10:36:41.043Z,10.30
2019-02-04T10:39:11.715Z,11.07
2019-02-04T10:41:42.582Z,8.73
2019-02-04T10:44:13.451Z,9.77
2019-02-04T10:46:45.127Z,9.50
2019-02-04T10:49:16.193Z,5.93
2019-02-04T10:51:46.936Z,10.47
2019-02-04T10:54:17.689Z,9.07
2019-02-04T10:56:48.426Z,4.50
2019-02-04T10:59:19.205Z,5.10
2019-02-04T11:01:49.906Z,5.60
2019-02-04T11:04:20.691Z,6.00
2019-02-04T11:06:51.512Z,5.60
2019-02-04T11:09:22.195Z,6.00
2019-02-04T11:11:52.963Z,6.10
2019-02-04T11:14:23.716Z,6.40
2019-02-04T11:16:54.751Z,6.90
2019-02-04T11:19:25.479Z,7.03
2019-02-04T11:21:56.217Z,7.20
2019-02-04T11:24:27.082Z,6.80
2019-02-04T11:26:57.915Z,6.00
2019-02-04T11:29:29.046Z,6.50
2019-02-04T11:31:59.818Z,7.00
2019-02-04T11:34:30.556Z,7.43
2019-02-04T11:37:01.258Z,7.40
2019-02-04T11:39:32.019Z,7.37
2019-02-04T11:42:03.259Z,8.97
2019-02-04T11:44:34.090Z,8.47
2019-02-04T11:47:04.852Z,7.63
2019-02-04T11:49:35.563Z,7.40
2019-02-04T11:52:06.282Z,6.20
2019-02-04T11:54:37.032Z,5.90
2019-02-04T11:57:07.749Z,5.47
2019-02-04T11:59:38.513Z,5.60
2019-02-04T12:02:09.338Z,4.93
2019-02-04T12:04:41.159Z,5.10
2019-02-04T12:07:11.978Z,5.00
2019-02-04T12:09:42.735Z,6.50
2019-02-04T12:12:13.686Z,5.80
2019-02-04T12:14:44.522Z,5.33
2019-02-04T12:17:15.238Z,6.10
2019-02-04T12:19:45.982Z,7.40
2019-02-04T12:22:16.810Z,7.40
2019-02-04T12:24:47.554Z,5.20
2019-02-04T12:27:18.267Z,5.40
2019-02-04T12:29:49.030Z,5.30
2019-02-04T12:32:19.779Z,7.03
2019-02-04T12:34:51.150Z,6.83
2019-02-04T12:37:21.888Z,6.60
2019-02-04T12:39:52.650Z,6.83
2019-02-04T12:42:23.383Z,8.90
2019-02-04T12:44:54.147Z,7.23
2019-02-04T12:47:25.939Z,7.20
2019-02-04T12:49:56.698Z,7.33
2019-02-04T12:52:27.414Z,8.50
2019-02-04T12:54:58.176Z,8.53
2019-02-04T12:57:28.904Z,8.03
2019-02-04T12:59:59.671Z,7.87
2019-02-04T13:02:30.411Z,6.90
2019-02-04T13:05:01.190Z,5.90
2019-02-04T13:07:31.946Z,5.73
2019-02-04T13:10:02.699Z,4.23
2019-02-04T13:12:34.532Z,5.70
2019-02-04T13:15:06.375Z,4.93
2019-02-04T13:17:37.129Z,3.60
2019-02-04T13:20:09.371Z,5.10
2019-02-04T13:22:40.099Z,5.47
2019-02-04T13:25:12.718Z,5.70
2019-02-04T13:27:43.589Z,5.40
2019-02-04T13:30:16.970Z,5.07
2019-02-04T13:32:47.686Z,6.20
2019-02-04T13:35:18.657Z,5.70
2019-02-04T13:37:50.027Z,5.80
2019-02-04T13:40:23.626Z,5.60
2019-02-04T13:42:54.572Z,6.63
2019-02-04T13:45:25.436Z,7.00
2019-02-04T13:47:56.232Z,7.33
2019-02-04T13:50:27.079Z,7.00
2019-02-04T13:52:58.021Z,5.97
2019-02-04T13:55:32.510Z,6.60
2019-02-04T13:58:03.146Z,6.27
2019-02-04T14:00:34.347Z,6.27
2019-02-04T14:03:06.953Z,6.40
2019-02-04T14:05:38.110Z,5.60
2019-02-04T14:08:08.915Z,6.13
2019-02-04T14:10:41.658Z,5.93
2019-02-04T14:13:12.627Z,6.63
2019-02-04T14:15:43.773Z,6.40
2019-02-04T14:18:14.501Z,7.30
2019-02-04T14:20:45.266Z,7.63
2019-02-04T14:23:16.084Z,7.07
2019-02-04T14:25:46.865Z,6.90
2019-02-04T14:28:17.879Z,9.57
2019-02-04T14:30:48.580Z,6.80
2019-02-04T14:33:19.317Z,7.20
2019-02-04T14:35:50.065Z,6.33
2019-02-04T14:38:20.778Z,6.23
2019-02-04T14:40:51.921Z,6.20
2019-02-04T14:43:35.740Z,7.00
2019-02-04T14:46:33.613Z,6.77
2019-02-04T14:49:44.865Z,6.20
2019-02-04T14:52:59.084Z,6.10
2019-02-04T14:56:00.226Z,6.30
2019-02-04T14:58:43.034Z,6.70
2019-02-04T15:01:53.317Z,6.03
2019-02-04T15:05:20.094Z,6.40
2019-02-04T15:08:34.888Z,5.80
2019-02-04T15:11:18.057Z,5.00
2019-02-04T15:14:14.957Z,5.60
2019-02-04T15:17:13.711Z,6.20
2019-02-04T15:20:20.286Z,6.70
2019-02-04T15:23:17.850Z,6.33
2019-02-04T15:26:24.162Z,6.30
2019-02-04T15:29:54.405Z,5.60
2019-02-04T15:33:09.368Z,6.20
2019-02-04T15:36:12.586Z,7.10
2019-02-04T15:39:12.105Z,6.20
2019-02-04T15:42:31.858Z,6.37
2019-02-04T15:45:10.006Z,6.90
2019-02-04T15:47:51.487Z,7.37
2019-02-04T15:50:43.299Z,7.20
2019-02-04T15:53:14.077Z,7.67
2019-02-04T15:55:44.806Z,7.60
2019-02-04T15:58:15.541Z,7.33
2019-02-04T16:00:46.553Z,8.73
2019-02-04T16:03:17.289Z,9.13
2019-02-04T16:05:47.945Z,9.30
2019-02-04T16:08:18.682Z,9.60
2019-02-04T16:10:49.461Z,8.30
2019-02-04T16:13:20.193Z,7.80
2019-02-04T16:15:50.853Z,8.73
2019-02-04T16:18:21.585Z,9.80
2019-02-04T16:20:52.364Z,10.40
2019-02-04T16:23:23.966Z,12.27
2019-02-04T16:25:54.659Z,10.17
2019-02-04T16:28:25.382Z,9.60
2019-02-04T16:30:56.108Z,9.80
2019-02-04T16:33:26.852Z,10.50
2019-02-04T16:35:57.585Z,10.50
2019-02-04T16:38:28.340Z,11.50
2019-02-04T16:40:59.483Z,10.60
2019-02-04T16:43:30.222Z,9.63
2019-02-04T16:46:00.939Z,8.90
2019-02-04T16:48:31.689Z,10.83
2019-02-04T16:51:11.272Z,8.80
2019-02-04T16:53:34.741Z,9.90
2019-02-04T16:56:05.478Z,8.50
2019-02-04T16:58:36.202Z,8.80
2019-02-04T17:01:06.924Z,9.00
2019-02-04T17:03:37.690Z,8.57
2019-02-04T17:06:08.405Z,10.80
2019-02-04T17:08:39.159Z,13.40
2019-02-04T17:11:09.897Z,12.60
2019-02-04T17:13:40.782Z,13.00
2019-02-04T17:16:11.531Z,12.63
2019-02-04T17:18:42.299Z,14.07
2019-02-04T17:21:13.382Z,14.83
2019-02-04T17:23:44.188Z,14.67
2019-02-04T17:26:14.942Z,13.93
2019-02-04T17:28:45.868Z,14.60
2019-02-04T17:31:16.658Z,14.47
2019-02-04T17:33:48.058Z,14.60
2019-02-04T17:36:18.783Z,14.80
2019-02-04T17:38:49.690Z,15.83
2019-02-04T17:41:20.614Z,14.10
2019-02-04T17:43:51.361Z,14.53
2019-02-04T17:46:22.097Z,15.47
2019-02-04T17:48:53.219Z,14.00
2019-02-04T17:51:25.005Z,15.13
2019-02-04T17:53:55.717Z,15.00
2019-02-04T17:56:26.890Z,15.70
2019-02-04T17:58:57.625Z,14.77
2019-02-04T18:01:28.386Z,14.70
2019-02-04T18:03:59.315Z,15.43
2019-02-04T18:06:31.664Z,13.67
2019-02-04T18:09:02.453Z,15.17
2019-02-04T18:11:33.788Z,16.10
2019-02-04T18:14:04.888Z,16.60
2019-02-04T18:16:35.698Z,16.83
2019-02-04T18:19:06.431Z,17.07
2019-02-04T18:21:37.207Z,17.63
2019-02-04T18:24:07.913Z,18.03
2019-02-04T18:26:38.769Z,19.20
2019-02-04T18:29:09.501Z,16.40
2019-02-04T18:31:40.253Z,16.87
2019-02-04T18:34:10.946Z,18.00
2019-02-04T18:36:41.682Z,15.10
2019-02-04T18:39:12.857Z,15.10
2019-02-04T18:41:43.681Z,15.63
2019-02-04T18:44:14.417Z,16.60
2019-02-04T18:46:45.608Z,17.70
2019-02-04T18:49:16.337Z,17.77
2019-02-04T18:51:47.109Z,17.97
2019-02-04T18:54:17.834Z,17.37
2019-02-04T18:56:48.642Z,18.00
2019-02-04T18:59:19.371Z,17.17
2019-02-04T19:01:50.127Z,17.17
2019-02-04T19:04:20.887Z,17.43
2019-02-04T19:06:51.649Z,15.23
2019-02-04T19:09:22.410Z,14.90
2019-02-04T19:11:55.436Z,15.70
2019-02-04T19:14:25.597Z,16.00
2019-02-04T19:16:56.363Z,14.70
2019-02-04T19:19:27.080Z,14.93
2019-02-04T19:21:57.894Z,15.33
2019-02-04T19:24:28.642Z,15.27
2019-02-04T19:26:59.414Z,16.70
2019-02-04T19:29:30.471Z,15.60
2019-02-04T19:32:02.939Z,15.47
2019-02-04T19:34:33.638Z,16.13
2019-02-04T19:37:04.447Z,16.00
2019-02-04T19:39:35.164Z,16.10
2019-02-04T19:42:06.852Z,15.80
2019-02-04T19:44:37.589Z,14.50
2019-02-04T19:47:08.350Z,15.20
2019-02-04T19:49:39.227Z,16.00
2019-02-04T19:52:15.641Z,15.10
2019-02-04T19:54:47.348Z,14.60
2019-02-04T19:57:18.169Z,13.83
2019-02-04T19:59:49.045Z,14.83
2019-02-04T20:02:19.785Z,14.50
2019-02-04T20:04:51.401Z,16.90
2019-02-04T20:07:22.457Z,16.87
2019-02-04T20:09:53.189Z,16.30
2019-02-04T20:12:26.837Z,16.03
2019-02-04T20:14:57.762Z,15.40
2019-02-04T20:17:28.502Z,14.80
2019-02-04T20:19:59.427Z,15.13
2019-02-04T20:22:30.085Z,16.30
2019-02-04T20:25:00.821Z,15.63
2019-02-04T20:27:31.513Z,15.03
2019-02-04T20:30:02.250Z,16.23
2019-02-04T20:32:33.967Z,15.87
2019-02-04T20:35:05.675Z,17.40
2019-02-04T20:37:37.397Z,16.10
2019-02-04T20:40:09.114Z,16.97
2019-02-04T20:42:40.243Z,17.53
2019-02-04T20:45:12.175Z,17.67
2019-02-04T20:47:43.228Z,17.97
2019-02-04T20:50:17.393Z,20.47
2019-02-04T20:52:48.579Z,20.30
2019-02-04T20:55:19.766Z,21.40
2019-02-04T20:57:50.901Z,21.10
2019-02-04T21:00:25.258Z,21.87
2019-02-04T21:02:56.233Z,22.13
2019-02-04T21:05:27.161Z,21.00
2019-02-04T21:07:58.017Z,20.87
2019-02-04T21:10:29.372Z,21.23
2019-02-04T21:13:00.845Z,20.47
2019-02-04T21:15:31.746Z,21.40
2019-02-04T21:18:03.101Z,20.50
2019-02-04T21:20:34.323Z,19.90
2019-02-04T21:23:05.413Z,22.20
2019-02-04T21:25:36.538Z,23.07
2019-02-04T21:28:07.527Z,24.67
2019-02-04T21:30:40.541Z,19.80
2019-02-04T21:33:11.236Z,17.90
2019-02-04T21:35:41.907Z,17.90
2019-02-04T21:38:13.048Z,18.77
2019-02-04T21:40:43.769Z,17.47
2019-02-04T21:43:14.577Z,17.50
2019-02-04T21:45:46.397Z,18.47
2019-02-04T21:48:17.195Z,20.50
2019-02-04T21:50:47.919Z,19.20
2019-02-04T21:53:18.691Z,20.23
2019-02-04T21:55:49.449Z,19.80
2019-02-04T21:58:20.193Z,21.43
2019-02-04T22:00:50.966Z,21.43
2019-02-04T22:03:21.729Z,18.60
2019-02-04T22:05:52.405Z,18.90
2019-02-04T22:08:23.128Z,18.33
2019-02-04T22:10:54.280Z,20.03
2019-02-04T22:13:25.033Z,19.03
2019-02-04T22:15:57.049Z,17.30
2019-02-04T22:18:27.778Z,19.43
2019-02-04T22:20:58.526Z,19.57
2019-02-04T22:23:29.253Z,19.50
2019-02-04T22:26:00.329Z,18.30
2019-02-04T22:28:31.061Z,21.70
2019-02-04T22:31:02.108Z,20.03
2019-02-04T22:33:32.849Z,18.03
2019-02-04T22:36:03.589Z,17.50
2019-02-04T22:38:34.248Z,19.37
2019-02-04T22:41:05.514Z,19.10
2019-02-04T22:43:36.266Z,22.70
2019-02-04T22:46:07.441Z,21.60
2019-02-04T22:48:39.257Z,22.37
2019-02-04T22:51:10.010Z,22.20
2019-02-04T22:53:40.744Z,21.50
2019-02-04T22:56:11.505Z,22.43
2019-02-04T22:58:42.524Z,22.20
2019-02-04T23:01:29.581Z,20.87
2019-02-04T23:04:00.306Z,19.57
2019-02-04T23:06:31.050Z,19.60
2019-02-04T23:09:02.077Z,20.30
2019-02-04T23:11:34.620Z,21.00
2019-02-04T23:14:06.692Z,20.10
2019-02-04T23:16:37.543Z,19.37
2019-02-04T23:19:08.681Z,17.73
2019-02-04T23:21:39.752Z,19.67
2019-02-04T23:24:10.497Z,18.13
2019-02-04T23:26:41.233Z,18.50
2019-02-04T23:29:11.978Z,16.70
2019-02-04T23:31:42.648Z,17.40
2019-02-04T23:34:13.711Z,17.27
2019-02-04T23:36:44.454Z,18.50
2019-02-04T23:39:15.174Z,18.50
2019-02-04T23:41:45.910Z,19.33
2019-02-04T23:44:16.665Z,18.83
2019-02-04T23:46:47.425Z,20.60
2019-02-04T23:49:18.076Z,21.10
2019-02-04T23:51:49.713Z,22.60
2019-02-04T23:54:20.444Z,20.20
2019-02-04T23:56:51.217Z,21.87
2019-02-04T23:59:21.917Z,21.83
